N357AZ KLGA-KUKT
Flight info
| Callsign | N357AZ |
|---|---|
| Flight time | 0h 53m |
| Altitude | 5500 |
| Route | DCT KUKT |
| Aircraft | C172/L-S/C |
Departure
| Time | 2026-05-06 02:26 |
|---|---|
| Airport | LaGuardia Airport (KLGA) |
Arrival
| Time | 2026-05-06 03:19 |
|---|---|
| Airport | Quakertown Airport (KUKT) |
| Time | Latitude | Longitude | Altitude | Speed | Heading |
|---|---|---|---|---|---|
| 2026-05-06 02:14 | 40.77510 | -73.86861 | 8 ft | 0 kts | 298° |
| 2026-05-06 02:19 | 40.77518 | -73.86875 | 8 ft | 10 kts | 322° |
| 2026-05-06 02:19 | 40.77537 | -73.86747 | 6 ft | 28 kts | 131° |
| 2026-05-06 02:19 | 40.77500 | -73.86576 | 5 ft | 7 kts | 94° |
| 2026-05-06 02:19 | 40.77501 | -73.86568 | 6 ft | 0 kts | 82° |
| 2026-05-06 02:20 | 40.77510 | -73.86861 | 8 ft | 0 kts | 298° |
| 2026-05-06 02:22 | 40.77527 | -73.86881 | 8 ft | 11 kts | 348° |
| 2026-05-06 02:22 | 40.77518 | -73.86761 | 6 ft | 24 kts | 126° |
| 2026-05-06 02:22 | 40.77408 | -73.86548 | 6 ft | 31 kts | 123° |
| 2026-05-06 02:23 | 40.77293 | -73.86290 | 8 ft | 25 kts | 115° |
| 2026-05-06 02:23 | 40.77244 | -73.86168 | 10 ft | 13 kts | 130° |
| 2026-05-06 02:23 | 40.77191 | -73.86077 | 8 ft | 12 kts | 122° |
| 2026-05-06 02:23 | 40.77154 | -73.85987 | 9 ft | 11 kts | 102° |
| 2026-05-06 02:24 | 40.77185 | -73.85910 | 9 ft | 8 kts | 44° |
| 2026-05-06 02:24 | 40.77204 | -73.85861 | 9 ft | 5 kts | 62° |
| 2026-05-06 02:24 | 40.77218 | -73.85835 | 9 ft | 2 kts | 44° |
| 2026-05-06 02:24 | 40.77220 | -73.85833 | 9 ft | 0 kts | 40° |
| 2026-05-06 02:25 | 40.77249 | -73.85830 | 9 ft | 9 kts | 339° |
| 2026-05-06 02:25 | 40.77324 | -73.85966 | 10 ft | 38 kts | 300° |
| 2026-05-06 02:25 | 40.77560 | -73.86459 | 21 ft | 83 kts | 297° |
| 2026-05-06 02:26 | 40.77851 | -73.87114 | 242 ft | 80 kts | 285° |
| 2026-05-06 02:26 | 40.78030 | -73.87820 | 424 ft | 85 kts | 278° |
| 2026-05-06 02:26 | 40.78086 | -73.88555 | 691 ft | 74 kts | 262° |
| 2026-05-06 02:26 | 40.78097 | -73.89218 | 931 ft | 70 kts | 254° |
| 2026-05-06 02:27 | 40.78074 | -73.89808 | 1212 ft | 57 kts | 243° |
| 2026-05-06 02:27 | 40.77980 | -73.90265 | 1407 ft | 51 kts | 232° |
| 2026-05-06 02:27 | 40.77872 | -73.90715 | 1641 ft | 52 kts | 237° |
| 2026-05-06 02:27 | 40.77814 | -73.91165 | 1866 ft | 45 kts | 237° |
| 2026-05-06 02:28 | 40.77742 | -73.91569 | 2049 ft | 47 kts | 236° |
| 2026-05-06 02:28 | 40.77663 | -73.92042 | 2208 ft | 56 kts | 242° |
| 2026-05-06 02:28 | 40.77584 | -73.92529 | 2438 ft | 53 kts | 242° |
| 2026-05-06 02:28 | 40.77532 | -73.93021 | 2632 ft | 56 kts | 246° |
| 2026-05-06 02:29 | 40.77400 | -73.93494 | 2754 ft | 57 kts | 236° |
| 2026-05-06 02:29 | 40.77178 | -73.93918 | 2963 ft | 54 kts | 231° |
| 2026-05-06 02:29 | 40.76913 | -73.94249 | 3172 ft | 54 kts | 225° |
| 2026-05-06 02:29 | 40.76610 | -73.94549 | 3386 ft | 51 kts | 229° |
| 2026-05-06 02:30 | 40.76537 | -73.95053 | 3524 ft | 68 kts | 260° |
| 2026-05-06 02:30 | 40.76623 | -73.95680 | 3731 ft | 68 kts | 264° |
| 2026-05-06 02:30 | 40.76724 | -73.96227 | 4023 ft | 59 kts | 268° |
| 2026-05-06 02:30 | 40.76810 | -73.96692 | 4241 ft | 51 kts | 260° |
| 2026-05-06 02:31 | 40.76829 | -73.97154 | 4425 ft | 51 kts | 256° |
| 2026-05-06 02:31 | 40.76814 | -73.97604 | 4622 ft | 46 kts | 231° |
| 2026-05-06 02:31 | 40.76498 | -73.97737 | 4778 ft | 43 kts | 240° |
| 2026-05-06 02:31 | 40.76239 | -73.97950 | 4946 ft | 46 kts | 225° |
| 2026-05-06 02:32 | 40.76313 | -73.98327 | 5104 ft | 65 kts | 298° |
| 2026-05-06 02:32 | 40.76911 | -73.98033 | 5218 ft | 118 kts | 60° |
| 2026-05-06 02:32 | 40.76877 | -73.97123 | 5361 ft | 83 kts | 163° |
| 2026-05-06 02:32 | 40.76589 | -73.97159 | 5480 ft | 49 kts | 265° |
| 2026-05-06 02:33 | 40.76686 | -73.97725 | 5452 ft | 79 kts | 279° |
| 2026-05-06 02:33 | 40.76870 | -73.98183 | 5444 ft | 91 kts | 287° |
| 2026-05-06 02:33 | 40.77138 | -73.99962 | 5433 ft | 82 kts | 258° |
| 2026-05-06 02:34 | 40.77082 | -74.00684 | 5441 ft | 76 kts | 255° |
| 2026-05-06 02:34 | 40.76987 | -74.01350 | 5433 ft | 72 kts | 253° |
| 2026-05-06 02:34 | 40.76898 | -74.01978 | 5424 ft | 69 kts | 252° |
| 2026-05-06 02:34 | 40.76812 | -74.02590 | 5424 ft | 67 kts | 253° |
| 2026-05-06 02:35 | 40.76727 | -74.03180 | 5424 ft | 65 kts | 252° |
| 2026-05-06 02:35 | 40.76650 | -74.03759 | 5424 ft | 63 kts | 253° |
| 2026-05-06 02:35 | 40.76575 | -74.04329 | 5429 ft | 63 kts | 252° |
| 2026-05-06 02:35 | 40.76497 | -74.04909 | 5431 ft | 65 kts | 253° |
| 2026-05-06 02:36 | 40.76404 | -74.05540 | 5446 ft | 75 kts | 252° |
| 2026-05-06 02:36 | 40.76296 | -74.06258 | 5414 ft | 83 kts | 252° |
| 2026-05-06 02:36 | 40.76177 | -74.07027 | 5415 ft | 87 kts | 252° |
| 2026-05-06 02:36 | 40.76096 | -74.07552 | 5415 ft | 88 kts | 253° |
| 2026-05-06 02:37 | 40.75970 | -74.08348 | 5413 ft | 89 kts | 253° |
| 2026-05-06 02:37 | 40.75840 | -74.09137 | 5409 ft | 86 kts | 252° |
| 2026-05-06 02:37 | 40.75718 | -74.09905 | 5404 ft | 84 kts | 252° |
| 2026-05-06 02:37 | 40.75604 | -74.10653 | 5400 ft | 82 kts | 252° |
| 2026-05-06 02:38 | 40.75492 | -74.11378 | 5398 ft | 81 kts | 253° |
| 2026-05-06 02:38 | 40.75376 | -74.12105 | 5399 ft | 81 kts | 252° |
| 2026-05-06 02:38 | 40.75261 | -74.12826 | 5400 ft | 80 kts | 252° |
| 2026-05-06 02:38 | 40.75146 | -74.13549 | 5399 ft | 81 kts | 253° |
| 2026-05-06 02:39 | 40.75030 | -74.14271 | 5398 ft | 80 kts | 253° |
| 2026-05-06 02:39 | 40.74916 | -74.14991 | 5398 ft | 80 kts | 253° |
| 2026-05-06 02:39 | 40.74802 | -74.15710 | 5397 ft | 80 kts | 252° |
| 2026-05-06 02:39 | 40.74689 | -74.16435 | 5398 ft | 81 kts | 252° |
| 2026-05-06 02:40 | 40.74580 | -74.17163 | 5399 ft | 81 kts | 252° |
| 2026-05-06 02:40 | 40.74473 | -74.17890 | 5398 ft | 80 kts | 252° |
| 2026-05-06 02:40 | 40.74368 | -74.18611 | 5398 ft | 80 kts | 252° |
| 2026-05-06 02:40 | 40.74262 | -74.19330 | 5397 ft | 80 kts | 253° |
| 2026-05-06 02:41 | 40.74156 | -74.20045 | 5397 ft | 80 kts | 253° |
| 2026-05-06 02:41 | 40.74049 | -74.20763 | 5398 ft | 80 kts | 253° |
| 2026-05-06 02:41 | 40.73943 | -74.21478 | 5399 ft | 81 kts | 253° |
| 2026-05-06 02:41 | 40.73832 | -74.22215 | 5399 ft | 81 kts | 252° |
| 2026-05-06 02:42 | 40.73723 | -74.22944 | 5397 ft | 81 kts | 252° |
| 2026-05-06 02:42 | 40.73615 | -74.23674 | 5398 ft | 81 kts | 252° |
| 2026-05-06 02:42 | 40.73513 | -74.24394 | 5398 ft | 81 kts | 252° |
| 2026-05-06 02:42 | 40.73415 | -74.25124 | 5399 ft | 81 kts | 253° |
| 2026-05-06 02:43 | 40.73316 | -74.25857 | 5399 ft | 81 kts | 252° |
| 2026-05-06 02:43 | 40.73217 | -74.26582 | 5399 ft | 81 kts | 252° |
| 2026-05-06 02:43 | 40.73113 | -74.27319 | 5400 ft | 81 kts | 253° |
| 2026-05-06 02:43 | 40.73008 | -74.28052 | 5398 ft | 81 kts | 252° |
| 2026-05-06 02:44 | 40.72908 | -74.28784 | 5397 ft | 81 kts | 252° |
| 2026-05-06 02:44 | 40.72809 | -74.29516 | 5395 ft | 81 kts | 253° |
| 2026-05-06 02:44 | 40.72709 | -74.30249 | 5399 ft | 82 kts | 253° |
| 2026-05-06 02:44 | 40.72604 | -74.30998 | 5398 ft | 83 kts | 253° |
| 2026-05-06 02:45 | 40.72497 | -74.31740 | 5398 ft | 82 kts | 253° |
| 2026-05-06 02:45 | 40.72389 | -74.32478 | 5396 ft | 82 kts | 253° |
| 2026-05-06 02:45 | 40.72280 | -74.33212 | 5401 ft | 82 kts | 252° |
| 2026-05-06 02:45 | 40.72176 | -74.33940 | 5402 ft | 81 kts | 254° |
| 2026-05-06 02:46 | 40.72084 | -74.34670 | 5404 ft | 80 kts | 254° |
| 2026-05-06 02:46 | 40.71988 | -74.35395 | 5403 ft | 81 kts | 254° |
| 2026-05-06 02:46 | 40.71888 | -74.36125 | 5416 ft | 81 kts | 254° |
| 2026-05-06 02:46 | 40.71800 | -74.36861 | 5410 ft | 81 kts | 255° |
| 2026-05-06 02:47 | 40.71718 | -74.37593 | 5403 ft | 80 kts | 252° |
| 2026-05-06 02:47 | 40.71628 | -74.38317 | 5403 ft | 80 kts | 253° |
| 2026-05-06 02:47 | 40.71543 | -74.39045 | 5400 ft | 80 kts | 253° |
| 2026-05-06 02:47 | 40.71459 | -74.39761 | 5402 ft | 80 kts | 253° |
| 2026-05-06 02:48 | 40.71370 | -74.40496 | 5404 ft | 81 kts | 253° |
| 2026-05-06 02:48 | 40.71277 | -74.41233 | 5403 ft | 81 kts | 252° |
| 2026-05-06 02:48 | 40.71186 | -74.41966 | 5387 ft | 81 kts | 253° |
| 2026-05-06 02:48 | 40.71094 | -74.42690 | 5396 ft | 80 kts | 253° |
| 2026-05-06 02:49 | 40.70999 | -74.43413 | 5393 ft | 80 kts | 253° |
| 2026-05-06 02:49 | 40.70902 | -74.44130 | 5394 ft | 79 kts | 253° |
| 2026-05-06 02:49 | 40.70803 | -74.44844 | 5392 ft | 79 kts | 253° |
| 2026-05-06 02:49 | 40.70703 | -74.45546 | 5379 ft | 79 kts | 253° |
| 2026-05-06 02:50 | 40.70602 | -74.46257 | 5382 ft | 78 kts | 252° |
| 2026-05-06 02:50 | 40.70504 | -74.46965 | 5381 ft | 78 kts | 252° |
| 2026-05-06 02:50 | 40.70410 | -74.47673 | 5381 ft | 78 kts | 253° |
| 2026-05-06 02:50 | 40.70318 | -74.48381 | 5381 ft | 78 kts | 253° |
| 2026-05-06 02:51 | 40.70222 | -74.49086 | 5383 ft | 78 kts | 253° |
| 2026-05-06 02:51 | 40.70120 | -74.49783 | 5385 ft | 79 kts | 253° |
| 2026-05-06 02:51 | 40.70012 | -74.50504 | 5386 ft | 79 kts | 253° |
| 2026-05-06 02:51 | 40.69905 | -74.51221 | 5388 ft | 80 kts | 253° |
| 2026-05-06 02:52 | 40.69801 | -74.51930 | 5388 ft | 80 kts | 253° |
| 2026-05-06 02:52 | 40.69692 | -74.52647 | 5388 ft | 80 kts | 253° |
| 2026-05-06 02:52 | 40.69582 | -74.53362 | 5387 ft | 79 kts | 252° |
| 2026-05-06 02:52 | 40.69472 | -74.54073 | 5388 ft | 79 kts | 253° |
| 2026-05-06 02:53 | 40.69359 | -74.54779 | 5393 ft | 79 kts | 252° |
| 2026-05-06 02:53 | 40.69248 | -74.55496 | 5395 ft | 81 kts | 253° |
| 2026-05-06 02:53 | 40.69137 | -74.56227 | 5394 ft | 81 kts | 253° |
| 2026-05-06 02:53 | 40.69031 | -74.56953 | 5391 ft | 80 kts | 253° |
| 2026-05-06 02:54 | 40.68933 | -74.57670 | 5388 ft | 79 kts | 252° |
| 2026-05-06 02:54 | 40.68839 | -74.58384 | 5388 ft | 79 kts | 253° |
| 2026-05-06 02:54 | 40.68748 | -74.59093 | 5387 ft | 78 kts | 253° |
| 2026-05-06 02:54 | 40.68659 | -74.59795 | 5387 ft | 77 kts | 253° |
| 2026-05-06 02:55 | 40.68572 | -74.60485 | 5389 ft | 76 kts | 253° |
| 2026-05-06 02:55 | 40.68486 | -74.61168 | 5391 ft | 77 kts | 253° |
| 2026-05-06 02:55 | 40.68396 | -74.61872 | 5394 ft | 78 kts | 253° |
| 2026-05-06 02:55 | 40.68303 | -74.62585 | 5395 ft | 79 kts | 253° |
| 2026-05-06 02:56 | 40.68210 | -74.63293 | 5395 ft | 78 kts | 253° |
| 2026-05-06 02:56 | 40.68115 | -74.64004 | 5397 ft | 79 kts | 253° |
| 2026-05-06 02:56 | 40.68024 | -74.64719 | 5398 ft | 79 kts | 253° |
| 2026-05-06 02:56 | 40.67934 | -74.65435 | 5399 ft | 79 kts | 253° |
| 2026-05-06 02:57 | 40.67843 | -74.66157 | 5398 ft | 80 kts | 253° |
| 2026-05-06 02:57 | 40.67754 | -74.66882 | 5397 ft | 80 kts | 253° |
| 2026-05-06 02:57 | 40.67665 | -74.67609 | 5398 ft | 81 kts | 253° |
| 2026-05-06 02:57 | 40.67575 | -74.68341 | 5396 ft | 81 kts | 253° |
| 2026-05-06 02:58 | 40.67455 | -74.69064 | 5370 ft | 80 kts | 243° |
| 2026-05-06 02:58 | 40.67003 | -74.69526 | 5277 ft | 89 kts | 209° |
| 2026-05-06 02:58 | 40.66428 | -74.69730 | 5330 ft | 79 kts | 220° |
| 2026-05-06 02:58 | 40.65953 | -74.70020 | 5394 ft | 89 kts | 193° |
| 2026-05-06 02:59 | 40.65376 | -74.70094 | 5404 ft | 80 kts | 211° |
| 2026-05-06 02:59 | 40.64821 | -74.70291 | 5405 ft | 84 kts | 209° |
| 2026-05-06 02:59 | 40.64253 | -74.70491 | 5404 ft | 85 kts | 209° |
| 2026-05-06 02:59 | 40.63679 | -74.70697 | 5407 ft | 85 kts | 209° |
| 2026-05-06 03:00 | 40.63114 | -74.70903 | 5401 ft | 85 kts | 209° |
| 2026-05-06 03:00 | 40.62547 | -74.71112 | 5401 ft | 84 kts | 209° |
| 2026-05-06 03:00 | 40.61984 | -74.71322 | 5397 ft | 83 kts | 209° |
| 2026-05-06 03:00 | 40.61426 | -74.71523 | 5396 ft | 83 kts | 209° |
| 2026-05-06 03:01 | 40.60863 | -74.71727 | 5403 ft | 86 kts | 209° |
| 2026-05-06 03:01 | 40.60268 | -74.71954 | 5405 ft | 91 kts | 209° |
| 2026-05-06 03:01 | 40.59655 | -74.72194 | 5406 ft | 93 kts | 208° |
| 2026-05-06 03:01 | 40.59045 | -74.72478 | 5404 ft | 90 kts | 222° |
| 2026-05-06 03:02 | 40.58799 | -74.73205 | 5406 ft | 90 kts | 254° |
| 2026-05-06 03:02 | 40.58795 | -74.74063 | 5325 ft | 97 kts | 259° |
| 2026-05-06 03:02 | 40.58686 | -74.74910 | 5330 ft | 89 kts | 254° |
| 2026-05-06 03:02 | 40.58582 | -74.75681 | 5389 ft | 85 kts | 252° |
| 2026-05-06 03:03 | 40.58470 | -74.76447 | 5388 ft | 87 kts | 252° |
| 2026-05-06 03:03 | 40.58353 | -74.77234 | 5390 ft | 88 kts | 252° |
| 2026-05-06 03:03 | 40.58234 | -74.78024 | 5389 ft | 87 kts | 252° |
| 2026-05-06 03:03 | 40.58117 | -74.78800 | 5390 ft | 85 kts | 252° |
| 2026-05-06 03:04 | 40.58005 | -74.79561 | 5387 ft | 84 kts | 252° |
| 2026-05-06 03:04 | 40.57891 | -74.80314 | 5386 ft | 84 kts | 252° |
| 2026-05-06 03:04 | 40.57777 | -74.81073 | 5387 ft | 85 kts | 252° |
| 2026-05-06 03:04 | 40.57661 | -74.81830 | 5387 ft | 85 kts | 252° |
| 2026-05-06 03:05 | 40.57544 | -74.82591 | 5384 ft | 84 kts | 252° |
| 2026-05-06 03:05 | 40.57428 | -74.83343 | 5385 ft | 83 kts | 252° |
| 2026-05-06 03:05 | 40.57316 | -74.84082 | 5387 ft | 83 kts | 252° |
| 2026-05-06 03:05 | 40.57202 | -74.84829 | 5385 ft | 83 kts | 252° |
| 2026-05-06 03:06 | 40.57088 | -74.85578 | 5387 ft | 84 kts | 252° |
| 2026-05-06 03:06 | 40.56972 | -74.86332 | 5387 ft | 84 kts | 252° |
| 2026-05-06 03:06 | 40.56854 | -74.87085 | 5381 ft | 83 kts | 252° |
| 2026-05-06 03:06 | 40.56743 | -74.87805 | 5381 ft | 79 kts | 252° |
| 2026-05-06 03:07 | 40.56637 | -74.88509 | 5385 ft | 78 kts | 252° |
| 2026-05-06 03:07 | 40.56531 | -74.89212 | 5387 ft | 79 kts | 252° |
| 2026-05-06 03:07 | 40.56422 | -74.89931 | 5385 ft | 81 kts | 252° |
| 2026-05-06 03:07 | 40.56312 | -74.90653 | 5384 ft | 82 kts | 252° |
| 2026-05-06 03:08 | 40.56199 | -74.91389 | 5386 ft | 83 kts | 252° |
| 2026-05-06 03:08 | 40.56084 | -74.92137 | 5384 ft | 82 kts | 252° |
| 2026-05-06 03:08 | 40.55986 | -74.92819 | 5386 ft | 74 kts | 251° |
| 2026-05-06 03:08 | 40.55881 | -74.93520 | 5393 ft | 81 kts | 252° |
| 2026-05-06 03:09 | 40.55769 | -74.94271 | 5392 ft | 86 kts | 252° |
| 2026-05-06 03:09 | 40.55649 | -74.95051 | 5393 ft | 88 kts | 252° |
| 2026-05-06 03:09 | 40.55527 | -74.95840 | 5394 ft | 88 kts | 252° |
| 2026-05-06 03:09 | 40.55404 | -74.96634 | 5393 ft | 88 kts | 252° |
| 2026-05-06 03:10 | 40.55280 | -74.97428 | 5391 ft | 89 kts | 252° |
| 2026-05-06 03:10 | 40.55156 | -74.98226 | 5379 ft | 88 kts | 252° |
| 2026-05-06 03:10 | 40.55035 | -74.98993 | 5351 ft | 85 kts | 251° |
| 2026-05-06 03:10 | 40.54885 | -74.99755 | 5203 ft | 90 kts | 250° |
| 2026-05-06 03:11 | 40.54728 | -75.00568 | 5113 ft | 88 kts | 251° |
| 2026-05-06 03:11 | 40.54605 | -75.01363 | 4990 ft | 89 kts | 252° |
| 2026-05-06 03:11 | 40.54484 | -75.02171 | 4865 ft | 91 kts | 252° |
| 2026-05-06 03:11 | 40.54363 | -75.02985 | 4749 ft | 91 kts | 252° |
| 2026-05-06 03:12 | 40.54256 | -75.03776 | 4603 ft | 85 kts | 252° |
| 2026-05-06 03:12 | 40.54169 | -75.04540 | 4461 ft | 84 kts | 252° |
| 2026-05-06 03:12 | 40.54085 | -75.05304 | 4308 ft | 84 kts | 252° |
| 2026-05-06 03:12 | 40.54003 | -75.06061 | 4167 ft | 82 kts | 252° |
| 2026-05-06 03:13 | 40.53929 | -75.06795 | 4017 ft | 80 kts | 252° |
| 2026-05-06 03:13 | 40.53874 | -75.07503 | 3856 ft | 75 kts | 252° |
| 2026-05-06 03:13 | 40.53865 | -75.08158 | 3695 ft | 68 kts | 254° |
| 2026-05-06 03:13 | 40.53758 | -75.08707 | 3546 ft | 61 kts | 230° |
| 2026-05-06 03:14 | 40.53464 | -75.09098 | 3405 ft | 59 kts | 233° |
| 2026-05-06 03:14 | 40.53264 | -75.09562 | 3255 ft | 57 kts | 238° |
| 2026-05-06 03:14 | 40.53078 | -75.10019 | 3129 ft | 57 kts | 238° |
| 2026-05-06 03:14 | 40.52894 | -75.10487 | 3017 ft | 58 kts | 238° |
| 2026-05-06 03:15 | 40.52719 | -75.10957 | 2908 ft | 56 kts | 237° |
| 2026-05-06 03:15 | 40.52566 | -75.11425 | 2814 ft | 55 kts | 238° |
| 2026-05-06 03:15 | 40.52421 | -75.11907 | 2729 ft | 59 kts | 238° |
| 2026-05-06 03:15 | 40.52262 | -75.12419 | 2643 ft | 62 kts | 238° |
| 2026-05-06 03:16 | 40.52096 | -75.12951 | 2551 ft | 64 kts | 238° |
| 2026-05-06 03:16 | 40.51923 | -75.13502 | 2459 ft | 67 kts | 238° |
| 2026-05-06 03:16 | 40.51711 | -75.14120 | 2246 ft | 78 kts | 236° |
| 2026-05-06 03:16 | 40.51522 | -75.14771 | 2156 ft | 77 kts | 238° |
| 2026-05-06 03:17 | 40.51338 | -75.15441 | 2041 ft | 79 kts | 238° |
| 2026-05-06 03:17 | 40.51141 | -75.16138 | 1922 ft | 83 kts | 238° |
| 2026-05-06 03:17 | 40.50943 | -75.16853 | 1802 ft | 84 kts | 238° |
| 2026-05-06 03:17 | 40.50809 | -75.17333 | 1726 ft | 86 kts | 239° |
| 2026-05-06 03:18 | 40.50590 | -75.18080 | 1613 ft | 89 kts | 238° |
| 2026-05-06 03:18 | 40.50233 | -75.19085 | 1512 ft | 92 kts | 236° |
| 2026-05-06 03:18 | 40.49975 | -75.19834 | 1382 ft | 87 kts | 239° |
| 2026-05-06 03:18 | 40.49809 | -75.20305 | 1294 ft | 84 kts | 239° |
| 2026-05-06 03:19 | 40.49581 | -75.20906 | 1329 ft | 62 kts | 237° |
| 2026-05-06 03:19 | 40.49412 | -75.21379 | 1331 ft | 50 kts | 238° |
| 2026-05-06 03:19 | 40.49288 | -75.21767 | 1374 ft | 46 kts | 232° |
| 2026-05-06 03:19 | 40.49159 | -75.22218 | 1370 ft | 67 kts | 232° |
| 2026-05-06 03:20 | 40.48898 | -75.23254 | 1730 ft | 42 kts | 237° |
| 2026-05-06 03:20 | 40.48841 | -75.23593 | 2022 ft | 38 kts | 240° |
| 2026-05-06 03:20 | 40.48848 | -75.24010 | 2118 ft | 51 kts | 244° |
| 2026-05-06 03:21 | 40.48830 | -75.24573 | 2165 ft | 71 kts | 250° |
| 2026-05-06 03:21 | 40.48773 | -75.25286 | 2128 ft | 86 kts | 248° |
| 2026-05-06 03:21 | 40.48681 | -75.26095 | 2077 ft | 88 kts | 249° |
| 2026-05-06 03:21 | 40.48598 | -75.26854 | 2062 ft | 81 kts | 249° |
| 2026-05-06 03:22 | 40.48514 | -75.27560 | 2056 ft | 76 kts | 248° |
| 2026-05-06 03:22 | 40.48429 | -75.28240 | 2055 ft | 75 kts | 248° |
| 2026-05-06 03:22 | 40.48298 | -75.28877 | 2059 ft | 69 kts | 234° |
| 2026-05-06 03:22 | 40.48123 | -75.29458 | 2062 ft | 67 kts | 237° |
| 2026-05-06 03:23 | 40.47860 | -75.29904 | 2057 ft | 60 kts | 220° |
| 2026-05-06 03:23 | 40.47573 | -75.30272 | 2053 ft | 57 kts | 221° |
| 2026-05-06 03:23 | 40.47318 | -75.30570 | 2058 ft | 55 kts | 221° |
| 2026-05-06 03:23 | 40.47030 | -75.30902 | 2058 ft | 54 kts | 221° |
| 2026-05-06 03:24 | 40.46757 | -75.31236 | 2060 ft | 52 kts | 221° |
| 2026-05-06 03:24 | 40.46570 | -75.31649 | 2058 ft | 56 kts | 241° |
| 2026-05-06 03:24 | 40.46554 | -75.32185 | 2055 ft | 60 kts | 251° |
| 2026-05-06 03:24 | 40.46520 | -75.32700 | 2058 ft | 56 kts | 246° |
| 2026-05-06 03:25 | 40.46471 | -75.33207 | 2057 ft | 56 kts | 245° |
| 2026-05-06 03:25 | 40.46409 | -75.33735 | 2068 ft | 61 kts | 245° |
| 2026-05-06 03:25 | 40.46333 | -75.34297 | 2076 ft | 65 kts | 245° |
| 2026-05-06 03:25 | 40.46249 | -75.34892 | 2075 ft | 67 kts | 245° |
| 2026-05-06 03:26 | 40.46118 | -75.35482 | 2005 ft | 70 kts | 235° |
| 2026-05-06 03:26 | 40.45859 | -75.36069 | 1882 ft | 76 kts | 231° |
| 2026-05-06 03:26 | 40.45583 | -75.36655 | 1806 ft | 76 kts | 234° |
| 2026-05-06 03:26 | 40.45352 | -75.37279 | 1734 ft | 76 kts | 235° |
| 2026-05-06 03:27 | 40.45027 | -75.37747 | 1719 ft | 66 kts | 209° |
| 2026-05-06 03:27 | 40.44598 | -75.37969 | 1654 ft | 67 kts | 204° |
| 2026-05-06 03:27 | 40.44110 | -75.38100 | 1506 ft | 77 kts | 191° |
| 2026-05-06 03:27 | 40.43564 | -75.38115 | 1380 ft | 78 kts | 188° |
| 2026-05-06 03:28 | 40.43041 | -75.38170 | 1360 ft | 75 kts | 188° |
| 2026-05-06 03:28 | 40.42550 | -75.37929 | 1320 ft | 89 kts | 137° |
| 2026-05-06 03:28 | 40.42532 | -75.37047 | 1170 ft | 119 kts | 63° |
| 2026-05-06 03:28 | 40.43256 | -75.36645 | 1154 ft | 111 kts | 343° |
| 2026-05-06 03:29 | 40.43963 | -75.36903 | 1171 ft | 97 kts | 339° |
| 2026-05-06 03:29 | 40.44554 | -75.37293 | 1174 ft | 100 kts | 307° |
| 2026-05-06 03:29 | 40.44961 | -75.38061 | 1266 ft | 101 kts | 285° |
| 2026-05-06 03:29 | 40.45204 | -75.38864 | 1329 ft | 91 kts | 278° |
| 2026-05-06 03:30 | 40.45392 | -75.39621 | 1318 ft | 86 kts | 267° |
| 2026-05-06 03:30 | 40.45370 | -75.40392 | 1206 ft | 85 kts | 241° |
| 2026-05-06 03:30 | 40.44915 | -75.40787 | 1045 ft | 87 kts | 181° |
| 2026-05-06 03:30 | 40.44358 | -75.40681 | 1025 ft | 75 kts | 167° |
| 2026-05-06 03:31 | 40.43954 | -75.40285 | 973 ft | 77 kts | 139° |
| 2026-05-06 03:31 | 40.43686 | -75.39635 | 759 ft | 79 kts | 108° |
| 2026-05-06 03:31 | 40.43609 | -75.38942 | 577 ft | 73 kts | 105° |
| 2026-05-06 03:31 | 40.43530 | -75.38356 | 510 ft | 52 kts | 95° |
| 2026-05-06 03:32 | 40.43504 | -75.38111 | 506 ft | 16 kts | 102° |
| 2026-05-06 03:32 | 40.43533 | -75.38019 | 504 ft | 7 kts | 37° |
| 2026-05-06 03:32 | 40.43564 | -75.38025 | 505 ft | 4 kts | 271° |
| 2026-05-06 03:32 | 40.43566 | -75.38031 | 505 ft | 4 kts | 316° |
| 2026-05-06 03:33 | 40.43569 | -75.38034 | 505 ft | 0 kts | 335° |